createdAt,value
2022-08-28T00:02:09.410Z,21.70
2022-08-28T00:04:38.490Z,21.70
2022-08-28T00:07:07.895Z,21.80
2022-08-28T00:09:36.134Z,21.80
2022-08-28T00:12:04.474Z,21.80
2022-08-28T00:14:32.716Z,21.80
2022-08-28T00:17:00.523Z,21.80
2022-08-28T00:19:28.355Z,21.90
2022-08-28T00:21:56.183Z,21.80
2022-08-28T00:24:25.367Z,21.80
2022-08-28T00:27:10.886Z,21.80
2022-08-28T00:29:38.760Z,21.80
2022-08-28T00:32:08.825Z,21.80
2022-08-28T00:34:36.943Z,21.80
2022-08-28T00:37:04.753Z,21.80
2022-08-28T00:39:33.992Z,21.70
2022-08-28T00:42:02.652Z,21.70
2022-08-28T00:44:31.156Z,21.80
2022-08-28T00:46:59.986Z,21.80
2022-08-28T00:49:29.650Z,21.80
2022-08-28T00:52:11.911Z,21.80
2022-08-28T00:54:58.532Z,21.70
2022-08-28T00:57:29.187Z,21.70
2022-08-28T00:59:57.195Z,21.60
2022-08-28T01:02:25.434Z,21.50
2022-08-28T01:04:53.284Z,21.50
2022-08-28T01:07:23.204Z,21.50
2022-08-28T01:09:54.482Z,21.50
2022-08-28T01:12:24.500Z,21.60
2022-08-28T01:14:54.127Z,21.60
2022-08-28T01:17:23.693Z,21.60
2022-08-28T01:19:57.116Z,21.70
2022-08-28T01:22:27.845Z,21.60
2022-08-28T01:25:07.734Z,21.60
2022-08-28T01:27:35.663Z,21.70
2022-08-28T01:30:03.889Z,21.70
2022-08-28T01:32:34.730Z,21.70
2022-08-28T01:35:03.405Z,21.80
2022-08-28T01:37:31.938Z,21.80
2022-08-28T01:40:02.277Z,21.80
2022-08-28T01:42:30.255Z,21.80
2022-08-28T01:44:58.296Z,21.80
2022-08-28T01:47:26.207Z,21.80
2022-08-28T01:49:54.121Z,21.80
2022-08-28T01:52:26.364Z,21.70
2022-08-28T01:54:54.432Z,21.80
2022-08-28T01:57:25.221Z,21.70
2022-08-28T01:59:54.331Z,21.50
2022-08-28T02:02:22.597Z,21.50
2022-08-28T02:04:50.601Z,21.50
2022-08-28T02:07:18.751Z,21.40
2022-08-28T02:09:46.594Z,21.40
2022-08-28T02:12:14.395Z,21.40
2022-08-28T02:14:43.592Z,21.40
2022-08-28T02:17:12.069Z,21.50
2022-08-28T02:19:39.962Z,21.50
2022-08-28T02:22:09.348Z,21.60
2022-08-28T02:24:37.246Z,21.60
2022-08-28T02:27:05.488Z,21.60
2022-08-28T02:29:33.612Z,21.60
2022-08-28T02:32:05.808Z,21.60
2022-08-28T02:34:33.671Z,21.50
2022-08-28T02:37:01.710Z,21.40
2022-08-28T02:39:31.511Z,21.20
2022-08-28T02:41:59.329Z,21.20
2022-08-28T02:44:27.221Z,21.20
2022-08-28T02:46:55.336Z,21.20
2022-08-28T02:49:25.577Z,21.10
2022-08-28T02:52:03.504Z,21.10
2022-08-28T02:54:31.509Z,21.10
2022-08-28T02:56:59.470Z,21.20
2022-08-28T02:59:27.348Z,21.20
2022-08-28T03:01:55.726Z,21.30
2022-08-28T03:04:24.908Z,21.30
2022-08-28T03:06:52.848Z,21.20
2022-08-28T03:09:20.827Z,21.20
2022-08-28T03:11:48.778Z,21.20
2022-08-28T03:14:16.623Z,21.20
2022-08-28T03:16:44.663Z,21.10
2022-08-28T03:19:12.588Z,21.10
2022-08-28T03:21:43.794Z,21.00
2022-08-28T03:24:11.661Z,20.90
2022-08-28T03:26:44.047Z,20.80
2022-08-28T03:29:11.974Z,20.80
2022-08-28T03:31:39.953Z,20.80
2022-08-28T03:34:08.048Z,20.80
2022-08-28T03:36:36.351Z,20.80
2022-08-28T03:39:06.873Z,20.80
2022-08-28T03:41:34.812Z,20.70
2022-08-28T03:44:03.130Z,20.60
2022-08-28T03:46:32.800Z,20.60
2022-08-28T03:49:01.620Z,20.60
2022-08-28T03:51:31.130Z,20.50
2022-08-28T03:53:59.087Z,20.40
2022-08-28T03:56:29.562Z,20.40
2022-08-28T03:58:58.461Z,20.40
2022-08-28T04:01:28.147Z,20.40
2022-08-28T04:03:56.999Z,20.30
2022-08-28T04:06:24.884Z,20.30
2022-08-28T04:08:52.719Z,20.30
2022-08-28T04:11:20.656Z,20.30
2022-08-28T04:13:49.891Z,20.20
2022-08-28T04:16:19.188Z,20.20
2022-08-28T04:18:47.873Z,20.20
2022-08-28T04:21:16.799Z,20.20
2022-08-28T04:23:45.422Z,20.20
2022-08-28T04:26:14.727Z,20.20
2022-08-28T04:28:42.882Z,20.20
2022-08-28T04:31:12.610Z,20.10
2022-08-28T04:33:40.784Z,20.10
2022-08-28T04:36:11.151Z,20.10
2022-08-28T04:38:44.075Z,20.10
2022-08-28T04:41:13.155Z,20.10
2022-08-28T04:43:41.240Z,20.20
2022-08-28T04:46:09.869Z,20.20
2022-08-28T04:48:39.823Z,20.20
2022-08-28T04:51:08.612Z,20.20
2022-08-28T04:53:36.841Z,20.20
2022-08-28T04:56:05.597Z,20.30
2022-08-28T04:58:34.090Z,20.30
2022-08-28T05:01:06.697Z,20.30
2022-08-28T05:03:34.599Z,20.20
2022-08-28T05:06:04.643Z,20.20
2022-08-28T05:08:32.515Z,20.20
2022-08-28T05:11:10.724Z,20.30
2022-08-28T05:13:38.695Z,20.30
2022-08-28T05:16:07.121Z,20.20
2022-08-28T05:18:35.024Z,20.40
2022-08-28T05:21:04.789Z,20.40
2022-08-28T05:23:32.640Z,20.30
2022-08-28T05:26:00.456Z,20.30
2022-08-28T05:28:28.354Z,20.20
2022-08-28T05:30:56.820Z,20.10
2022-08-28T05:33:25.040Z,20.10
2022-08-28T05:35:52.894Z,20.20
2022-08-28T05:38:22.131Z,20.20
2022-08-28T05:40:50.221Z,20.10
2022-08-28T05:43:19.119Z,20.10
2022-08-28T05:45:47.721Z,20.10
2022-08-28T05:48:16.199Z,20.10
2022-08-28T05:50:47.355Z,20.10
2022-08-28T05:53:17.393Z,20.20
2022-08-28T05:55:51.988Z,20.20
2022-08-28T05:58:34.735Z,20.40
2022-08-28T06:01:09.588Z,20.50
2022-08-28T06:03:38.226Z,20.60
2022-08-28T06:06:06.211Z,20.70
2022-08-28T06:08:34.314Z,20.80
2022-08-28T06:11:05.555Z,20.80
2022-08-28T06:13:35.402Z,20.80
2022-08-28T06:16:05.037Z,20.80
2022-08-28T06:18:35.243Z,20.80
2022-08-28T06:21:14.559Z,20.90
2022-08-28T06:23:42.676Z,20.80
2022-08-28T06:26:12.002Z,20.80
2022-08-28T06:28:40.220Z,20.80
2022-08-28T06:31:23.169Z,20.60
2022-08-28T06:33:55.738Z,20.60
2022-08-28T06:36:23.916Z,20.50
2022-08-28T06:38:58.198Z,20.50
2022-08-28T06:41:27.646Z,20.50
2022-08-28T06:43:56.210Z,20.50
2022-08-28T06:46:25.145Z,20.50
2022-08-28T06:48:56.388Z,20.50
2022-08-28T06:51:24.956Z,20.40
2022-08-28T06:53:53.269Z,20.40
2022-08-28T06:56:25.962Z,20.50
2022-08-28T06:58:56.909Z,20.80
2022-08-28T07:01:29.581Z,21.00
2022-08-28T07:03:59.412Z,21.20
2022-08-28T07:06:27.504Z,21.40
2022-08-28T07:08:55.377Z,21.50
2022-08-28T07:11:26.261Z,21.60
2022-08-28T07:13:55.211Z,21.80
2022-08-28T07:16:25.990Z,22.00
2022-08-28T07:18:54.032Z,22.10
2022-08-28T07:21:21.970Z,22.20
2022-08-28T07:23:50.109Z,22.20
2022-08-28T07:26:19.151Z,22.20
2022-08-28T07:28:47.305Z,22.20
2022-08-28T07:31:16.490Z,22.10
2022-08-28T07:33:46.069Z,22.00
2022-08-28T07:36:15.846Z,22.00
2022-08-28T07:38:57.975Z,22.00
2022-08-28T07:41:26.586Z,22.00
2022-08-28T07:44:11.939Z,21.90
2022-08-28T07:46:40.362Z,21.70
2022-08-28T07:49:10.179Z,21.60
2022-08-28T07:51:39.898Z,21.70
2022-08-28T07:54:14.775Z,22.00
2022-08-28T07:56:46.196Z,22.40
2022-08-28T07:59:19.648Z,22.80
2022-08-28T08:01:50.872Z,23.00
2022-08-28T08:04:21.087Z,23.00
2022-08-28T08:06:49.063Z,22.90
2022-08-28T08:09:20.210Z,23.00
2022-08-28T08:11:50.654Z,23.10
2022-08-28T08:14:31.929Z,23.20
2022-08-28T08:17:02.169Z,23.30
2022-08-28T08:19:33.000Z,23.50
2022-08-28T08:22:02.850Z,23.50
2022-08-28T08:24:30.791Z,23.80
2022-08-28T08:27:02.446Z,24.00
2022-08-28T08:29:32.415Z,24.20
2022-08-28T08:32:05.792Z,24.00
2022-08-28T08:34:39.721Z,23.80
2022-08-28T08:37:09.798Z,23.90
2022-08-28T08:39:38.048Z,24.00
2022-08-28T08:42:08.048Z,24.10
2022-08-28T08:44:40.130Z,24.30
2022-08-28T08:47:15.193Z,24.40
2022-08-28T08:49:52.958Z,24.60
2022-08-28T08:52:41.910Z,24.70
2022-08-28T08:55:21.677Z,24.70
2022-08-28T08:57:55.740Z,24.90
2022-08-28T09:00:23.912Z,24.90
2022-08-28T09:03:00.175Z,25.00
2022-08-28T09:05:37.610Z,25.10
2022-08-28T09:08:06.211Z,24.90
2022-08-28T09:10:38.866Z,24.50
2022-08-28T09:13:18.922Z,24.20
2022-08-28T09:15:50.514Z,24.40
2022-08-28T09:18:21.467Z,24.40
2022-08-28T09:20:58.186Z,24.50
2022-08-28T09:23:27.070Z,24.70
2022-08-28T09:26:26.357Z,25.00
2022-08-28T09:29:03.159Z,25.40
2022-08-28T09:31:32.758Z,25.40
2022-08-28T09:34:18.565Z,25.60
2022-08-28T09:36:47.926Z,25.80
2022-08-28T09:39:22.025Z,25.90
2022-08-28T09:42:12.562Z,26.00
2022-08-28T09:45:00.632Z,26.10
2022-08-28T09:47:46.045Z,26.20
2022-08-28T09:50:26.501Z,26.20
2022-08-28T09:52:56.547Z,26.10
2022-08-28T09:55:29.724Z,25.80
2022-08-28T09:58:08.216Z,26.10
2022-08-28T10:03:48.509Z,26.30
2022-08-28T10:06:20.051Z,26.20
2022-08-28T10:08:57.796Z,26.20
2022-08-28T10:11:29.115Z,26.30
2022-08-28T10:14:03.794Z,26.50
2022-08-28T10:16:36.871Z,26.70
2022-08-28T10:19:16.410Z,26.80
2022-08-28T10:21:46.805Z,26.70
2022-08-28T10:24:26.398Z,26.50
2022-08-28T10:26:59.325Z,26.50
2022-08-28T10:29:34.394Z,26.70
2022-08-28T10:32:12.810Z,26.50
2022-08-28T10:34:47.771Z,26.40
2022-08-28T10:37:21.514Z,26.40
2022-08-28T10:39:55.111Z,26.60
2022-08-28T10:42:35.775Z,26.70
2022-08-28T10:45:07.167Z,26.90
2022-08-28T10:47:37.028Z,27.00
2022-08-28T10:50:09.376Z,26.90
2022-08-28T10:52:44.934Z,27.00
2022-08-28T10:55:23.504Z,27.30
2022-08-28T10:57:53.802Z,27.40
2022-08-28T11:00:22.244Z,27.40
2022-08-28T11:02:52.673Z,27.50
2022-08-28T11:05:21.559Z,27.60
2022-08-28T11:07:51.118Z,27.80
2022-08-28T11:10:41.819Z,27.90
2022-08-28T11:13:10.489Z,27.80
2022-08-28T11:15:47.302Z,28.00
2022-08-28T11:18:33.950Z,28.30
2022-08-28T11:21:05.340Z,28.30
2022-08-28T11:23:41.035Z,28.50
2022-08-28T11:26:12.466Z,28.60
2022-08-28T11:28:46.578Z,28.60
2022-08-28T11:31:29.377Z,28.50
2022-08-28T11:33:59.471Z,28.30
2022-08-28T11:36:46.346Z,28.00
2022-08-28T11:39:21.777Z,28.00
2022-08-28T11:42:16.880Z,28.30
2022-08-28T11:44:46.627Z,28.40
2022-08-28T11:47:38.174Z,28.60
2022-08-28T11:50:13.083Z,28.50
2022-08-28T11:52:49.396Z,28.50
2022-08-28T11:55:20.737Z,28.30
2022-08-28T11:57:55.326Z,28.30
2022-08-28T12:00:39.448Z,28.40
2022-08-28T12:03:12.017Z,28.30
2022-08-28T12:05:49.731Z,28.10
2022-08-28T12:08:39.326Z,28.10
2022-08-28T12:11:12.151Z,28.10
2022-08-28T12:13:45.823Z,28.20
2022-08-28T12:16:17.021Z,28.10
2022-08-28T12:19:02.383Z,28.40
2022-08-28T12:21:34.342Z,28.70
2022-08-28T12:24:09.901Z,29.00
2022-08-28T12:26:47.834Z,29.00
2022-08-28T12:29:27.193Z,28.90
2022-08-28T12:32:14.867Z,28.70
2022-08-28T12:34:45.799Z,28.40
2022-08-28T12:37:52.249Z,28.40
2022-08-28T12:40:57.043Z,28.60
2022-08-28T12:43:31.151Z,28.80
2022-08-28T12:46:02.388Z,28.80
2022-08-28T12:48:31.880Z,28.80
2022-08-28T12:51:02.952Z,29.10
2022-08-28T12:53:47.056Z,29.20
2022-08-28T12:56:20.011Z,29.00
2022-08-28T12:58:51.292Z,28.90
2022-08-28T13:01:39.044Z,28.70
2022-08-28T13:04:19.841Z,28.70
2022-08-28T13:06:49.206Z,28.90
2022-08-28T13:09:19.668Z,29.00
2022-08-28T13:11:49.271Z,29.00
2022-08-28T13:14:31.951Z,28.80
2022-08-28T13:17:03.159Z,28.70
2022-08-28T13:19:31.867Z,28.60
2022-08-28T13:22:31.366Z,28.50
2022-08-28T13:25:03.022Z,28.60
2022-08-28T13:27:30.954Z,28.40
2022-08-28T13:30:01.547Z,28.30
2022-08-28T13:32:30.071Z,28.40
2022-08-28T13:35:06.694Z,28.80
2022-08-28T13:37:46.594Z,28.70
2022-08-28T13:40:38.117Z,28.50
2022-08-28T13:43:06.979Z,28.40
2022-08-28T13:45:36.217Z,28.50
2022-08-28T13:48:13.688Z,28.60
2022-08-28T13:50:51.991Z,28.80
2022-08-28T13:53:22.111Z,28.70
2022-08-28T13:55:50.494Z,28.70
2022-08-28T13:58:18.687Z,28.80
2022-08-28T14:00:47.499Z,28.70
2022-08-28T14:03:32.908Z,28.70
2022-08-28T14:06:03.702Z,28.80
2022-08-28T14:08:33.063Z,28.90
2022-08-28T14:11:01.701Z,29.10
2022-08-28T14:13:29.947Z,29.30
2022-08-28T14:15:58.473Z,29.20
2022-08-28T14:18:27.974Z,29.20
2022-08-28T14:20:55.882Z,29.10
2022-08-28T14:23:24.117Z,29.10
2022-08-28T14:25:53.782Z,29.20
2022-08-28T14:28:21.668Z,29.30
2022-08-28T14:30:50.431Z,29.30
2022-08-28T14:33:20.716Z,29.30
2022-08-28T14:35:49.720Z,29.10
2022-08-28T14:38:20.898Z,29.00
2022-08-28T14:40:48.790Z,28.70
2022-08-28T14:43:21.900Z,28.50
2022-08-28T14:45:51.930Z,28.50
2022-08-28T14:48:20.119Z,28.40
2022-08-28T14:50:52.728Z,28.30
2022-08-28T14:53:22.190Z,28.30
2022-08-28T14:55:51.218Z,28.50
2022-08-28T14:58:20.753Z,28.60
2022-08-28T15:00:50.575Z,28.70
2022-08-28T15:03:22.326Z,28.80
2022-08-28T15:06:00.159Z,28.90
2022-08-28T15:08:28.186Z,29.10
2022-08-28T15:10:56.095Z,29.10
2022-08-28T15:13:25.496Z,29.00
2022-08-28T15:16:10.573Z,28.80
2022-08-28T15:18:45.672Z,28.60
2022-08-28T15:21:17.922Z,28.50
2022-08-28T15:23:46.218Z,28.50
2022-08-28T15:26:15.572Z,28.40
2022-08-28T15:28:45.005Z,28.30
2022-08-28T15:31:12.854Z,28.40
2022-08-28T15:33:45.088Z,28.50
2022-08-28T15:36:13.310Z,28.40
2022-08-28T15:38:59.147Z,28.30
2022-08-28T15:41:27.191Z,28.30
2022-08-28T15:44:00.065Z,28.20
2022-08-28T15:46:29.373Z,28.20
2022-08-28T15:48:57.836Z,28.20
2022-08-28T15:51:26.187Z,28.30
2022-08-28T15:53:54.377Z,28.30
2022-08-28T15:56:22.722Z,28.30
2022-08-28T15:58:51.987Z,28.20
2022-08-28T16:01:22.345Z,28.10
2022-08-28T16:03:51.088Z,28.00
2022-08-28T16:09:15.678Z,27.70
2022-08-28T16:11:43.982Z,27.70
2022-08-28T16:14:12.070Z,27.70
2022-08-28T16:16:41.346Z,27.70
2022-08-28T16:19:14.496Z,27.70
2022-08-28T16:21:42.684Z,27.80
2022-08-28T16:24:10.540Z,27.80
2022-08-28T16:26:38.362Z,27.90
2022-08-28T16:29:07.971Z,27.80
2022-08-28T16:31:35.807Z,27.80
2022-08-28T16:34:05.446Z,27.60
2022-08-28T16:36:33.507Z,27.40
2022-08-28T16:39:03.656Z,27.30
2022-08-28T16:41:32.140Z,27.20
2022-08-28T16:44:00.257Z,27.20
2022-08-28T16:46:31.526Z,27.10
2022-08-28T16:49:00.396Z,27.00
2022-08-28T16:51:30.397Z,26.90
2022-08-28T16:53:58.543Z,26.70
2022-08-28T16:56:26.801Z,26.50
2022-08-28T16:58:55.083Z,26.40
2022-08-28T17:01:32.643Z,26.30
2022-08-28T17:04:00.585Z,26.20
2022-08-28T17:06:35.537Z,26.00
2022-08-28T17:09:05.197Z,26.00
2022-08-28T17:11:43.098Z,26.00
2022-08-28T17:14:20.579Z,26.00
2022-08-28T17:16:54.941Z,26.00
2022-08-28T17:19:25.249Z,26.00
2022-08-28T17:22:39.162Z,26.00
2022-08-28T17:25:11.342Z,25.90
2022-08-28T17:27:39.213Z,25.80
2022-08-28T17:30:07.836Z,25.70
2022-08-28T17:32:36.091Z,25.60
2022-08-28T17:35:05.408Z,25.50
2022-08-28T17:37:34.650Z,25.50
2022-08-28T17:40:02.778Z,25.40
2022-08-28T17:42:30.597Z,25.40
2022-08-28T17:44:58.485Z,25.30
2022-08-28T17:47:30.563Z,25.10
2022-08-28T17:49:58.616Z,25.10
2022-08-28T17:52:26.489Z,25.00
2022-08-28T17:54:55.753Z,25.00
2022-08-28T17:57:24.273Z,24.90
2022-08-28T17:59:52.180Z,24.80
2022-08-28T18:02:19.997Z,24.70
2022-08-28T18:04:47.997Z,24.60
2022-08-28T18:07:15.935Z,24.50
2022-08-28T18:09:43.906Z,24.40
2022-08-28T18:12:13.607Z,24.40
2022-08-28T18:14:41.815Z,24.30
2022-08-28T18:17:10.750Z,24.20
2022-08-28T18:19:40.190Z,24.10
2022-08-28T18:22:08.777Z,24.00
2022-08-28T18:24:38.884Z,23.90
2022-08-28T18:27:07.679Z,23.80
2022-08-28T18:29:37.192Z,23.70
2022-08-28T18:32:05.068Z,23.60
2022-08-28T18:34:32.903Z,23.60
2022-08-28T18:37:00.901Z,23.50
2022-08-28T18:39:29.910Z,23.40
2022-08-28T18:41:58.084Z,23.30
2022-08-28T18:44:26.167Z,23.30
2022-08-28T18:46:55.866Z,23.20
2022-08-28T18:49:23.835Z,23.20
2022-08-28T18:51:51.835Z,23.10
2022-08-28T18:54:20.204Z,23.10
2022-08-28T18:56:49.685Z,23.00
2022-08-28T18:59:18.523Z,23.00
2022-08-28T19:01:46.697Z,22.90
2022-08-28T19:04:16.181Z,22.90
2022-08-28T19:06:44.253Z,22.80
2022-08-28T19:09:20.240Z,22.70
2022-08-28T19:11:48.818Z,22.60
2022-08-28T19:14:16.731Z,22.60
2022-08-28T19:16:45.002Z,22.50
2022-08-28T19:19:13.067Z,22.50
2022-08-28T19:21:42.456Z,22.40
2022-08-28T19:24:10.414Z,22.20
2022-08-28T19:26:38.624Z,22.10
2022-08-28T19:29:06.994Z,22.00
2022-08-28T19:31:37.698Z,21.80
2022-08-28T19:34:05.991Z,21.70
2022-08-28T19:36:35.582Z,21.60
2022-08-28T19:39:05.154Z,21.50
2022-08-28T19:41:33.080Z,21.40
2022-08-28T19:44:00.970Z,21.20
2022-08-28T19:46:31.426Z,21.10
2022-08-28T19:49:01.228Z,21.10
2022-08-28T19:51:33.251Z,21.00
2022-08-28T19:54:03.182Z,20.90
2022-08-28T19:56:37.629Z,20.70
2022-08-28T19:59:07.482Z,20.60
2022-08-28T20:01:37.828Z,20.50
2022-08-28T20:04:06.650Z,20.30
2022-08-28T20:06:35.604Z,20.20
2022-08-28T20:09:10.643Z,20.20
2022-08-28T20:11:45.029Z,20.10
2022-08-28T20:14:13.031Z,20.10
2022-08-28T20:16:43.045Z,20.00
2022-08-28T20:19:12.221Z,19.90
2022-08-28T20:21:42.648Z,19.90
2022-08-28T20:24:15.564Z,19.80
2022-08-28T20:26:45.016Z,19.70
2022-08-28T20:29:13.294Z,19.70
2022-08-28T20:31:41.962Z,19.60
2022-08-28T20:34:10.040Z,19.60
2022-08-28T20:36:38.052Z,19.50
2022-08-28T20:39:09.520Z,19.50
2022-08-28T20:41:38.702Z,19.40
2022-08-28T20:44:09.301Z,19.30
2022-08-28T20:46:41.380Z,19.30
2022-08-28T20:49:10.551Z,19.20
2022-08-28T20:51:57.680Z,19.10
2022-08-28T20:54:38.846Z,19.10
2022-08-28T20:57:11.248Z,19.10
2022-08-28T20:59:48.372Z,19.10
2022-08-28T21:02:21.243Z,19.00
2022-08-28T21:04:52.134Z,19.00
2022-08-28T21:07:25.584Z,19.00
2022-08-28T21:10:05.786Z,18.90
2022-08-28T21:12:35.419Z,18.90
2022-08-28T21:15:05.607Z,18.80
2022-08-28T21:17:33.950Z,18.70
2022-08-28T21:20:14.242Z,18.60
2022-08-28T21:23:03.483Z,18.50
2022-08-28T21:26:05.107Z,18.50
2022-08-28T21:38:53.661Z,18.10
2022-08-28T21:42:00.054Z,18.00
2022-08-28T21:54:31.503Z,17.80
2022-08-28T21:57:40.683Z,17.70
2022-08-28T22:00:44.244Z,17.70
2022-08-28T22:03:38.139Z,17.60
2022-08-28T22:06:31.284Z,17.50
2022-08-28T22:08:59.454Z,17.40
2022-08-28T22:11:37.549Z,17.30
2022-08-28T22:14:05.770Z,17.20
2022-08-28T22:16:36.478Z,17.20
2022-08-28T22:19:07.609Z,17.10
2022-08-28T22:21:53.244Z,17.00
2022-08-28T22:24:25.666Z,16.90
2022-08-28T22:26:57.296Z,16.80
2022-08-28T22:29:25.841Z,16.70
2022-08-28T22:31:53.848Z,16.60
2022-08-28T22:34:29.956Z,16.60
2022-08-28T22:36:57.960Z,16.50
2022-08-28T22:39:26.912Z,16.40
2022-08-28T22:41:54.810Z,16.40
2022-08-28T22:44:22.760Z,16.40
2022-08-28T22:46:50.999Z,16.40
2022-08-28T22:49:19.154Z,16.40
2022-08-28T22:51:49.432Z,16.30
2022-08-28T22:54:17.507Z,16.30
2022-08-28T22:56:45.730Z,16.20
2022-08-28T22:59:13.860Z,16.20
2022-08-28T23:01:42.859Z,16.10
2022-08-28T23:04:11.175Z,16.10
2022-08-28T23:06:40.353Z,16.00
2022-08-28T23:09:16.166Z,16.00
2022-08-28T23:11:44.090Z,15.90
2022-08-28T23:14:12.420Z,15.90
2022-08-28T23:16:44.235Z,15.90
2022-08-28T23:19:14.857Z,15.90
2022-08-28T23:21:49.596Z,15.90
2022-08-28T23:24:19.295Z,15.80
2022-08-28T23:26:47.540Z,15.80
2022-08-28T23:29:15.484Z,15.70
2022-08-28T23:31:44.211Z,15.70
2022-08-28T23:34:13.840Z,15.60
2022-08-28T23:36:43.413Z,15.60
2022-08-28T23:39:11.551Z,15.50
2022-08-28T23:41:43.867Z,15.50
2022-08-28T23:44:11.753Z,15.50
2022-08-28T23:46:44.958Z,15.40
2022-08-28T23:49:14.083Z,15.40
2022-08-28T23:51:46.801Z,15.30
2022-08-28T23:54:22.309Z,15.30
2022-08-28T23:56:51.880Z,15.20
2022-08-28T23:59:22.921Z,15.20
